Time,TemperatureF,DewpointF,PressureIn,WindDirection,WindDirectionDegrees,WindSpeedMPH,WindSpeedGustMPH,Humidity,HourlyPrecipIn,Conditions,Clouds,dailyrainin,SoftwareType,DateUTC
2013-07-01 10:00:00,75.9,61.0,30.08,ENE,67,0.0,-999.0,60,-99.99,,,0.00,Acu-Link.com,2013-07-01 15:00:00,
2013-07-01 10:15:00,77.0,61.1,30.08,NE,45,0.0,-999.0,58,-99.99,,,0.00,Acu-Link.com,2013-07-01 15:15:00,
2013-07-01 10:30:00,78.1,61.6,30.08,North,0,1.1,-999.0,57,-99.99,,,0.00,Acu-Link.com,2013-07-01 15:30:00,
2013-07-01 10:46:00,78.6,61.1,30.08,ESE,112,0.0,-999.0,55,-99.99,,,0.00,Acu-Link.com,2013-07-01 15:46:00,
2013-07-01 11:01:00,79.7,57.7,30.08,West,270,1.7,-999.0,47,-99.99,,,0.00,Acu-Link.com,2013-07-01 16:01:00,
2013-07-01 11:16:00,80.8,59.8,30.08,NNW,337,0.0,-999.0,49,-99.99,,,0.00,Acu-Link.com,2013-07-01 16:16:00,
2013-07-01 11:31:00,79.2,58.9,30.07,NNW,337,0.0,-999.0,50,-99.99,,,0.00,Acu-Link.com,2013-07-01 16:31:00,
2013-07-01 11:46:00,81.1,58.3,30.07,ESE,112,0.0,-999.0,46,-99.99,,,0.00,Acu-Link.com,2013-07-01 16:46:00,
2013-07-01 12:01:00,80.6,56.6,30.07,West,270,0.0,-999.0,44,-99.99,,,0.00,Acu-Link.com,2013-07-01 17:01:00,
2013-07-01 12:17:00,81.9,57.2,30.08,NE,45,0.0,-999.0,43,-99.99,,,0.00,Acu-Link.com,2013-07-01 17:17:00,
2013-07-01 12:32:00,83.5,57.3,30.07,NNW,337,3.2,-999.0,41,-99.99,,,0.00,Acu-Link.com,2013-07-01 17:32:00,
2013-07-01 12:47:00,81.5,54.8,30.06,SW,225,1.1,-999.0,40,-99.99,,,0.00,Acu-Link.com,2013-07-01 17:47:00,
2013-07-01 13:02:00,81.9,54.5,30.06,NW,315,1.7,-999.0,39,-99.99,,,0.00,Acu-Link.com,2013-07-01 18:02:00,
2013-07-01 13:17:00,81.1,53.8,30.06,NW,315,2.7,-999.0,39,-99.99,,,0.00,Acu-Link.com,2013-07-01 18:17:00,
2013-07-01 13:33:00,83.8,55.5,30.06,West,270,0.0,-999.0,38,-99.99,,,0.00,Acu-Link.com,2013-07-01 18:33:00,
2013-07-01 13:48:00,82.9,56.1,30.06,NE,45,2.2,-999.0,40,-99.99,,,0.00,Acu-Link.com,2013-07-01 18:48:00,
2013-07-01 14:03:00,81.7,56.3,30.06,WSW,247,0.0,-999.0,42,-99.99,,,0.00,Acu-Link.com,2013-07-01 19:03:00,
2013-07-01 14:18:00,84.9,53.4,30.06,WSW,247,0.0,-999.0,34,-99.99,,,0.00,Acu-Link.com,2013-07-01 19:18:00,
2013-07-01 14:33:00,81.0,56.4,30.05,SE,135,0.0,-999.0,43,-99.99,,,0.00,Acu-Link.com,2013-07-01 19:33:00,
2013-07-01 14:48:00,84.6,53.1,30.05,West,270,2.2,-999.0,34,-99.99,,,0.00,Acu-Link.com,2013-07-01 19:48:00,
2013-07-01 15:04:00,84.0,54.1,30.05,NW,315,1.1,-999.0,36,-99.99,,,0.00,Acu-Link.com,2013-07-01 20:04:00,
2013-07-01 15:19:00,84.2,51.9,30.04,NNW,337,1.7,-999.0,33,-99.99,,,0.00,Acu-Link.com,2013-07-01 20:19:00,
2013-07-01 15:34:00,83.5,55.2,30.04,NNW,337,0.0,-999.0,38,-99.99,,,0.00,Acu-Link.com,2013-07-01 20:34:00,
2013-07-01 15:49:00,84.4,55.3,30.03,North,0,1.1,-999.0,37,-99.99,,,0.00,Acu-Link.com,2013-07-01 20:49:00,
2013-07-01 16:04:00,82.9,53.9,30.04,North,0,1.1,-999.0,37,-99.99,,,0.00,Acu-Link.com,2013-07-01 21:04:00,
2013-07-01 16:19:00,83.3,54.3,30.03,North,0,1.7,-999.0,37,-99.99,,,0.00,Acu-Link.com,2013-07-01 21:19:00,
2013-07-01 16:35:00,83.3,52.8,30.03,NE,45,2.7,-999.0,35,-99.99,,,0.00,Acu-Link.com,2013-07-01 21:35:00,
2013-07-01 16:50:00,83.1,55.5,30.03,North,0,2.2,-999.0,39,-99.99,,,0.00,Acu-Link.com,2013-07-01 21:50:00,
2013-07-01 17:05:00,84.2,56.5,30.03,NNE,22,0.0,-999.0,39,-99.99,,,0.00,Acu-Link.com,2013-07-01 22:05:00,
2013-07-01 17:20:00,84.0,55.6,30.03,North,0,1.1,-999.0,38,-99.99,,,0.00,Acu-Link.com,2013-07-01 22:20:00,
2013-07-01 17:35:00,83.3,57.1,30.03,NNW,337,0.0,-999.0,41,-99.99,,,0.00,Acu-Link.com,2013-07-01 22:35:00,
2013-07-01 17:50:00,82.4,55.6,30.03,North,0,2.2,-999.0,40,-99.99,,,0.00,Acu-Link.com,2013-07-01 22:50:00,
2013-07-01 18:06:00,82.0,57.3,30.03,West,270,0.0,-999.0,43,-99.99,,,0.00,Acu-Link.com,2013-07-01 23:06:00,
2013-07-01 18:21:00,81.9,58.4,30.02,WNW,292,0.0,-999.0,45,-99.99,,,0.00,Acu-Link.com,2013-07-01 23:21:00,
2013-07-01 18:36:00,81.5,58.1,30.02,NNE,22,3.7,-999.0,45,-99.99,,,0.00,Acu-Link.com,2013-07-01 23:36:00,
2013-07-01 18:51:00,81.1,57.7,30.02,WNW,292,1.7,-999.0,45,-99.99,,,0.00,Acu-Link.com,2013-07-01 23:51:00,
2013-07-01 19:06:00,80.2,58.7,30.02,ENE,67,0.0,-999.0,48,-99.99,,,0.00,Acu-Link.com,2013-07-02 00:06:00,
2013-07-01 19:22:00,79.9,59.0,30.02,West,270,0.0,-999.0,49,-99.99,,,0.00,Acu-Link.com,2013-07-02 00:22:00,
2013-07-01 19:37:00,79.0,60.4,30.02,West,270,0.0,-999.0,53,-99.99,,,0.00,Acu-Link.com,2013-07-02 00:37:00,
2013-07-01 19:52:00,78.3,60.3,30.02,SSW,202,0.0,-999.0,54,-99.99,,,0.00,Acu-Link.com,2013-07-02 00:52:00,
2013-07-01 20:07:00,77.2,59.2,30.02,South,180,0.0,-999.0,54,-99.99,,,0.00,Acu-Link.com,2013-07-02 01:07:00,
2013-07-01 20:22:00,75.9,60.5,30.02,South,180,0.0,-999.0,59,-99.99,,,0.00,Acu-Link.com,2013-07-02 01:22:00,
2013-07-01 20:38:00,74.3,60.0,30.02,SSE,157,0.0,-999.0,61,-99.99,,,0.00,Acu-Link.com,2013-07-02 01:38:00,
2013-07-01 20:53:00,72.9,59.1,30.02,SSE,157,0.0,-999.0,62,-99.99,,,0.00,Acu-Link.com,2013-07-02 01:53:00,
2013-07-01 21:08:00,71.8,59.8,30.02,South,180,0.0,-999.0,66,-99.99,,,0.00,Acu-Link.com,2013-07-02 02:08:00,
2013-07-01 21:23:00,70.5,59.0,30.02,South,180,0.0,-999.0,67,-99.99,,,0.00,Acu-Link.com,2013-07-02 02:23:00,
2013-07-01 21:38:00,69.4,58.8,30.02,ESE,112,0.0,-999.0,69,-99.99,,,0.00,Acu-Link.com,2013-07-02 02:38:00,
2013-07-01 21:54:00,68.7,58.9,30.03,SE,135,0.0,-999.0,71,-99.99,,,0.00,Acu-Link.com,2013-07-02 02:54:00,
2013-07-01 22:09:00,68.2,59.2,30.03,SE,135,0.0,-999.0,73,-99.99,,,0.00,Acu-Link.com,2013-07-02 03:09:00,
2013-07-01 22:24:00,67.5,58.5,30.03,WSW,247,0.0,-999.0,73,-99.99,,,0.00,Acu-Link.com,2013-07-02 03:24:00,
2013-07-01 22:39:00,66.7,58.5,30.03,West,270,0.0,-999.0,75,-99.99,,,0.00,Acu-Link.com,2013-07-02 03:39:00,
2013-07-01 22:54:00,65.7,57.6,30.03,West,270,0.0,-999.0,75,-99.99,,,0.00,Acu-Link.com,2013-07-02 03:54:00,
2013-07-01 23:09:00,65.1,57.0,30.03,West,270,0.0,-999.0,75,-99.99,,,0.00,Acu-Link.com,2013-07-02 04:09:00,
2013-07-01 23:24:00,64.6,56.9,30.03,West,270,0.0,-999.0,76,-99.99,,,0.00,Acu-Link.com,2013-07-02 04:24:00,
2013-07-01 23:40:00,64.2,56.5,30.03,West,270,0.0,-999.0,76,-99.99,,,0.00,Acu-Link.com,2013-07-02 04:40:00,
2013-07-01 23:55:00,63.9,56.2,30.03,West,270,0.0,-999.0,76,-99.99,,,0.00,Acu-Link.com,2013-07-02 04:55:00,